Ensenada, BCN, Mexico
Current Conditions -  °F | °C
As of 12:48 PM on Monday 24 Nov 2014 (Local Time) from MMTJ Reporting Station
Scattered Clouds Scattered Clouds  
Wind Chill: 79°   Ceiling: Unl
Heat Index: 79°   Visibility: 9mi
Dew Point:   Wind: 10mph
Humidity: 7%   Direction: 310°NW
Pressure: 30.17"   Gusts: NA
Location:  31.87°N, 116.62°W
Report Text: MMTJ 242048Z 31009KT 9SM SCT200 26/M13 A3017 RMK SLP239 57002 942 8/005
Loading
Personal Weather Stations






























Interactive Weather Map New forecast layout! Learn more

10-Day Weather Forecast

Advertisements
Track Severe Weather on mobile